Terminal Aerodrome Forecast
Issued by NWS Lake Charles, LA

Home | Current Version | Previous Version | Text Only | Print | Product List | Glossary On
Versions: 1 2 3 4 5 6 7 8 9 10 11 12 13 14 15 16 17 18
707
FTUS44 KLCH 051130
TAFLFT
TAF
KLFT 051130Z 0512/0612 28004KT P6SM SKC
     FM051500 35012KT P6SM SKC
     FM060000 VRB04KT P6SM SCT250=

USA.gov is the U.S. government's official web portal to all federal, state and local government web resources and services.